createdAt,value
2022-11-14T00:01:24.530Z,11.07
2022-11-14T00:06:46.093Z,9.73
2022-11-14T00:12:07.802Z,12.60
2022-11-14T00:17:30.412Z,10.65
2022-11-14T00:22:51.791Z,9.48
2022-11-14T00:28:13.728Z,10.63
2022-11-14T00:33:36.775Z,12.10
2022-11-14T00:38:58.314Z,11.55
2022-11-14T00:44:19.673Z,10.98
2022-11-14T00:49:42.491Z,11.07
2022-11-14T00:55:04.403Z,12.10
2022-11-14T01:00:25.700Z,10.10
2022-11-14T01:05:50.469Z,13.82
2022-11-14T01:11:12.824Z,11.63
2022-11-14T01:16:35.821Z,13.20
2022-11-14T01:22:01.783Z,13.07
2022-11-14T01:27:27.228Z,11.93
2022-11-14T01:32:48.585Z,10.77
2022-11-14T01:38:14.797Z,9.67
2022-11-14T01:43:36.943Z,10.90
2022-11-14T01:49:01.138Z,11.93
2022-11-14T01:54:26.472Z,10.77
2022-11-14T01:59:52.865Z,11.33
2022-11-14T02:05:16.595Z,8.47
2022-11-14T02:10:39.287Z,9.90
2022-11-14T02:16:00.727Z,9.27
2022-11-14T02:21:23.163Z,10.20
2022-11-14T02:26:44.691Z,8.83
2022-11-14T02:32:10.458Z,9.90
2022-11-14T02:37:33.743Z,10.77
2022-11-14T02:42:55.353Z,9.30
2022-11-14T02:48:16.736Z,9.07
2022-11-14T02:53:39.588Z,9.40
2022-11-14T02:59:01.067Z,10.30
2022-11-14T03:04:22.629Z,10.83
2022-11-14T03:09:45.422Z,9.83
2022-11-14T03:15:08.487Z,9.18
2022-11-14T03:20:29.946Z,8.63
2022-11-14T03:25:52.431Z,9.95
2022-11-14T03:31:14.601Z,8.47
2022-11-14T03:36:36.296Z,10.23
2022-11-14T03:41:58.930Z,9.53
2022-11-14T03:47:20.501Z,9.50
2022-11-14T03:52:41.971Z,9.03
2022-11-14T03:58:04.724Z,7.67
2022-11-14T04:03:26.506Z,7.20
2022-11-14T04:08:47.675Z,9.73
2022-11-14T04:14:10.895Z,17.05
2022-11-14T04:19:32.369Z,7.43
2022-11-14T04:24:53.739Z,8.20
2022-11-14T04:30:17.153Z,10.10
2022-11-14T04:35:38.733Z,8.37
2022-11-14T04:41:00.211Z,9.47
2022-11-14T04:46:22.980Z,8.30
2022-11-14T04:51:44.288Z,9.10
2022-11-14T04:57:05.775Z,7.13
2022-11-14T05:02:28.531Z,7.93
2022-11-14T05:07:49.954Z,8.33
2022-11-14T05:13:11.442Z,7.75
2022-11-14T05:18:34.249Z,8.47
2022-11-14T05:23:55.604Z,9.77
2022-11-14T05:29:17.049Z,10.63
2022-11-14T05:34:39.940Z,10.10
2022-11-14T05:40:01.506Z,9.73
2022-11-14T05:45:23.037Z,9.73
2022-11-14T05:50:45.815Z,9.80
2022-11-14T05:56:10.101Z,10.80
2022-11-14T06:01:31.256Z,10.03
2022-11-14T06:06:54.222Z,11.20
2022-11-14T06:12:15.581Z,11.40
2022-11-14T06:17:36.839Z,10.33
2022-11-14T06:22:59.664Z,10.27
2022-11-14T06:28:20.965Z,10.30
2022-11-14T06:33:42.711Z,8.30
2022-11-14T06:39:05.571Z,10.03
2022-11-14T06:44:30.676Z,10.00
2022-11-14T06:49:52.522Z,10.03
2022-11-14T06:55:16.288Z,9.83
2022-11-14T07:00:38.706Z,9.30
2022-11-14T07:06:00.523Z,6.77
2022-11-14T07:11:26.390Z,8.33
2022-11-14T07:16:48.017Z,8.07
2022-11-14T07:22:09.201Z,8.17
2022-11-14T07:27:31.999Z,7.33
2022-11-14T07:32:56.930Z,8.05
2022-11-14T07:38:18.188Z,8.02
2022-11-14T07:43:41.649Z,7.88
2022-11-14T07:49:02.792Z,8.80
2022-11-14T07:54:24.101Z,9.32
2022-11-14T07:59:46.858Z,10.38
2022-11-14T08:05:08.952Z,9.18
2022-11-14T08:10:33.597Z,10.32
2022-11-14T08:15:57.183Z,10.07
2022-11-14T08:21:18.382Z,10.40
2022-11-14T08:26:39.969Z,8.90
2022-11-14T08:32:02.653Z,8.23
2022-11-14T08:37:24.237Z,10.45
2022-11-14T08:42:45.584Z,10.90
2022-11-14T08:48:08.553Z,9.82
2022-11-14T08:53:30.768Z,9.50
2022-11-14T08:58:52.172Z,10.27
2022-11-14T09:04:15.147Z,12.48
2022-11-14T09:09:36.874Z,9.27
2022-11-14T09:14:58.184Z,10.50
2022-11-14T09:20:21.085Z,11.05
2022-11-14T09:25:42.736Z,9.93
2022-11-14T09:31:05.150Z,9.52
2022-11-14T09:36:27.897Z,11.30
2022-11-14T09:41:58.680Z,12.13
2022-11-14T09:47:23.757Z,11.65
2022-11-14T09:52:48.334Z,11.40
2022-11-14T09:58:13.943Z,10.32
2022-11-14T10:03:44.703Z,9.50
2022-11-14T10:09:30.475Z,11.55
2022-11-14T10:15:01.593Z,12.50
2022-11-14T10:20:27.667Z,10.82
2022-11-14T10:25:56.757Z,10.15
2022-11-14T10:31:24.231Z,11.20
2022-11-14T10:37:00.637Z,10.30
2022-11-14T10:42:27.116Z,8.55
2022-11-14T10:47:52.977Z,9.45
2022-11-14T10:53:21.131Z,9.98
2022-11-14T10:58:48.964Z,9.25
2022-11-14T11:04:20.333Z,8.93
2022-11-14T11:09:59.471Z,7.55
2022-11-14T11:15:23.936Z,8.18
2022-11-14T11:20:45.115Z,7.90
2022-11-14T11:26:09.010Z,8.32
2022-11-14T11:31:50.071Z,7.75
2022-11-14T11:37:16.628Z,6.70
2022-11-14T11:48:25.064Z,6.70
2022-11-14T11:53:49.512Z,6.88
2022-11-14T11:59:22.696Z,5.78
2022-11-14T12:04:45.557Z,6.03
2022-11-14T12:10:14.997Z,6.57
2022-11-14T12:15:45.782Z,5.95
2022-11-14T12:21:12.477Z,5.72
2022-11-14T12:26:47.015Z,5.28
2022-11-14T12:32:13.754Z,5.80
2022-11-14T12:37:39.030Z,5.20
2022-11-14T12:43:00.845Z,5.70
2022-11-14T12:48:24.372Z,5.20
2022-11-14T12:53:46.942Z,5.60
2022-11-14T12:59:26.145Z,5.75
2022-11-14T13:05:01.175Z,4.43
2022-11-14T13:10:30.842Z,5.03
2022-11-14T13:16:10.696Z,4.93
2022-11-14T13:21:47.155Z,4.25
2022-11-14T13:27:52.277Z,6.53
2022-11-14T13:33:09.334Z,4.85
2022-11-14T13:38:52.134Z,4.72
2022-11-14T13:44:33.708Z,5.40
2022-11-14T13:49:59.976Z,5.30
2022-11-14T13:55:22.813Z,4.55
2022-11-14T14:01:04.651Z,3.85
2022-11-14T14:06:35.902Z,4.65
2022-11-14T14:12:23.182Z,3.88
2022-11-14T14:17:54.007Z,4.05
2022-11-14T14:23:25.439Z,4.40
2022-11-14T14:28:53.323Z,4.50
2022-11-14T14:34:28.060Z,4.93
2022-11-14T14:39:59.813Z,4.78
2022-11-14T14:45:22.428Z,5.65
2022-11-14T14:50:50.716Z,6.05
2022-11-14T14:56:19.547Z,5.95
2022-11-14T15:01:40.885Z,6.38
2022-11-14T15:07:04.195Z,5.80
2022-11-14T15:12:27.554Z,5.70
2022-11-14T15:17:49.766Z,5.82
2022-11-14T15:23:21.715Z,5.60
2022-11-14T15:28:44.722Z,6.45
2022-11-14T15:34:08.030Z,7.60
2022-11-14T15:39:30.699Z,8.50
2022-11-14T15:44:52.343Z,7.75
2022-11-14T15:50:26.606Z,6.00
2022-11-14T15:55:49.402Z,6.28
2022-11-14T16:01:16.034Z,7.80
2022-11-14T16:06:37.309Z,6.20
2022-11-14T16:12:00.128Z,7.03
2022-11-14T16:17:21.455Z,7.63
2022-11-14T16:22:43.180Z,7.65
2022-11-14T16:28:06.153Z,7.57
2022-11-14T16:33:27.553Z,8.52
2022-11-14T16:38:52.259Z,8.35
2022-11-14T16:44:17.368Z,8.00
2022-11-14T16:49:38.933Z,8.50
2022-11-14T16:55:00.243Z,7.85
2022-11-14T17:00:23.312Z,8.45
2022-11-14T17:05:45.496Z,8.68
2022-11-14T17:11:09.572Z,7.85
2022-11-14T17:16:32.413Z,8.88
2022-11-14T17:21:53.857Z,8.90
2022-11-14T17:27:15.328Z,8.48
2022-11-14T17:32:38.030Z,8.35
2022-11-14T17:38:00.507Z,8.57
2022-11-14T17:43:21.935Z,8.80
2022-11-14T17:48:44.840Z,8.23
2022-11-14T17:54:06.239Z,8.23
2022-11-14T17:59:27.569Z,8.65
2022-11-14T18:04:50.365Z,8.48
2022-11-14T18:10:11.563Z,8.25
2022-11-14T18:15:33.536Z,7.82
2022-11-14T18:20:56.305Z,8.52
2022-11-14T18:26:18.410Z,9.57
2022-11-14T18:31:39.632Z,8.27
2022-11-14T18:37:03.041Z,7.80
2022-11-14T18:42:24.148Z,8.57
2022-11-14T18:47:45.671Z,8.30
2022-11-14T18:53:08.562Z,9.35
2022-11-14T18:58:30.042Z,10.45
2022-11-14T19:03:52.102Z,9.15
2022-11-14T19:09:18.237Z,9.68
2022-11-14T19:14:39.709Z,11.00
2022-11-14T19:20:01.312Z,9.90
2022-11-14T19:25:23.892Z,10.32
2022-11-14T19:30:45.481Z,11.13
2022-11-14T19:36:08.061Z,9.65
2022-11-14T19:41:31.151Z,10.98
2022-11-14T19:46:52.622Z,10.23
2022-11-14T19:52:14.133Z,9.88
2022-11-14T19:57:36.713Z,9.35
2022-11-14T20:02:58.373Z,9.32
2022-11-14T20:08:19.856Z,11.07
2022-11-14T20:13:44.010Z,10.80
2022-11-14T20:19:05.758Z,10.18
2022-11-14T20:24:26.937Z,10.73
2022-11-14T20:29:49.971Z,10.05
2022-11-14T20:35:11.208Z,10.73
2022-11-14T20:40:33.183Z,9.23
2022-11-14T20:46:01.083Z,8.65
2022-11-14T20:51:24.122Z,9.23
2022-11-14T20:56:45.528Z,10.75
2022-11-14T21:02:10.181Z,8.95
2022-11-14T21:07:31.597Z,9.07
2022-11-14T21:13:06.792Z,10.23
2022-11-14T21:18:30.264Z,9.75
2022-11-14T21:23:52.481Z,9.07
2022-11-14T21:29:14.921Z,9.40
2022-11-14T21:34:37.905Z,9.30
2022-11-14T21:39:59.012Z,11.10
2022-11-14T21:45:20.530Z,9.25
2022-11-14T21:50:43.239Z,9.55
2022-11-14T21:56:09.598Z,9.25
2022-11-14T22:01:44.963Z,9.18
2022-11-14T22:07:08.775Z,10.38
2022-11-14T22:12:30.528Z,10.18
2022-11-14T22:17:51.781Z,9.00
2022-11-14T22:23:14.679Z,10.90
2022-11-14T22:28:35.953Z,10.30
2022-11-14T22:33:58.771Z,9.90
2022-11-14T22:39:21.172Z,9.85
2022-11-14T22:44:42.691Z,7.80
2022-11-14T22:50:04.237Z,9.35
2022-11-14T22:55:26.823Z,8.82
2022-11-14T23:00:48.580Z,8.52
2022-11-14T23:06:10.373Z,7.90
2022-11-14T23:11:34.103Z,6.93
2022-11-14T23:16:55.234Z,7.80
2022-11-14T23:22:16.755Z,7.07
2022-11-14T23:27:39.747Z,6.10
2022-11-14T23:33:01.188Z,7.55
2022-11-14T23:38:22.695Z,7.80
2022-11-14T23:43:45.457Z,6.93
2022-11-14T23:49:07.062Z,6.40
2022-11-14T23:54:28.338Z,7.18
2022-11-14T23:59:51.281Z,7.20
